createdAt,value
2019-05-17T00:02:23.233Z,79.26
2019-05-17T00:04:50.711Z,79.93
2019-05-17T00:07:18.165Z,80.65
2019-05-17T00:09:47.695Z,80.91
2019-05-17T00:12:16.600Z,80.45
2019-05-17T00:14:51.143Z,80.71
2019-05-17T00:17:26.624Z,79.94
2019-05-17T00:19:59.570Z,80.16
2019-05-17T00:22:47.133Z,81.28
2019-05-17T00:25:21.110Z,80.27
2019-05-17T00:27:58.070Z,79.94
2019-05-17T00:30:26.596Z,80.65
2019-05-17T00:32:54.239Z,80.59
2019-05-17T00:35:21.395Z,80.14
2019-05-17T00:37:48.661Z,79.65
2019-05-17T00:40:18.812Z,81.00
2019-05-17T00:42:46.730Z,81.12
2019-05-17T00:45:14.673Z,79.99
2019-05-17T00:47:41.897Z,78.73
2019-05-17T00:50:12.634Z,79.23
2019-05-17T00:52:40.153Z,80.50
2019-05-17T00:55:08.120Z,79.42
2019-05-17T00:57:36.841Z,81.26
2019-05-17T01:00:08.288Z,79.88
2019-05-17T01:02:36.337Z,80.47
2019-05-17T01:05:06.378Z,80.58
2019-05-17T01:07:33.677Z,78.67
2019-05-17T01:10:00.933Z,80.38
2019-05-17T01:12:28.204Z,81.46
2019-05-17T01:14:55.353Z,80.82
2019-05-17T01:17:22.517Z,81.30
2019-05-17T01:19:49.886Z,79.20
2019-05-17T01:22:17.241Z,79.70
2019-05-17T01:24:46.279Z,79.49
2019-05-17T01:27:13.876Z,81.21
2019-05-17T01:29:41.148Z,79.49
2019-05-17T01:32:08.455Z,79.28
2019-05-17T01:34:37.617Z,80.85
2019-05-17T01:37:06.504Z,80.11
2019-05-17T01:39:34.119Z,79.89
2019-05-17T01:42:01.305Z,80.29
2019-05-17T01:44:28.518Z,80.91
2019-05-17T01:46:56.723Z,81.88
2019-05-17T01:49:24.033Z,79.63
2019-05-17T01:51:51.175Z,79.33
2019-05-17T01:54:18.326Z,80.84
2019-05-17T01:56:46.296Z,80.76
2019-05-17T01:59:13.728Z,80.60
2019-05-17T02:01:42.686Z,81.37
2019-05-17T02:04:09.927Z,79.31
2019-05-17T02:06:37.087Z,79.84
2019-05-17T02:09:06.356Z,80.83
2019-05-17T02:11:33.744Z,80.01
2019-05-17T02:14:01.119Z,80.43
2019-05-17T02:16:28.396Z,80.03
2019-05-17T02:18:57.320Z,79.15
2019-05-17T02:21:24.716Z,80.04
2019-05-17T02:23:51.905Z,81.43
2019-05-17T02:26:19.270Z,80.33
2019-05-17T02:28:46.639Z,81.26
2019-05-17T02:31:14.300Z,82.14
2019-05-17T02:33:43.028Z,81.40
2019-05-17T02:36:13.918Z,80.71
2019-05-17T02:38:39.703Z,81.38
2019-05-17T02:41:07.046Z,79.93
2019-05-17T02:43:34.320Z,79.73
2019-05-17T02:46:03.691Z,80.03
2019-05-17T02:48:33.888Z,79.96
2019-05-17T02:51:03.157Z,80.55
2019-05-17T02:53:29.168Z,79.83
2019-05-17T02:55:56.328Z,79.23
2019-05-17T02:58:23.614Z,79.09
2019-05-17T03:00:53.298Z,81.05
2019-05-17T03:03:23.447Z,81.42
2019-05-17T03:05:49.359Z,81.24
2019-05-17T03:08:16.742Z,80.13
2019-05-17T03:10:44.093Z,80.22
2019-05-17T03:13:13.226Z,80.73
2019-05-17T03:15:43.189Z,79.42
2019-05-17T03:18:09.686Z,79.66
2019-05-17T03:20:36.961Z,79.52
2019-05-17T03:23:04.326Z,80.57
2019-05-17T03:25:33.532Z,80.26
2019-05-17T03:28:02.917Z,80.78
2019-05-17T03:30:36.168Z,80.48
2019-05-17T03:33:06.182Z,80.84
2019-05-17T03:35:36.724Z,80.31
2019-05-17T03:38:03.497Z,79.57
2019-05-17T03:41:01.074Z,80.35
2019-05-17T03:43:02.561Z,80.60
2019-05-17T03:45:28.741Z,79.60
2019-05-17T03:47:56.180Z,79.42
2019-05-17T03:50:23.439Z,80.55
2019-05-17T03:52:53.578Z,78.88
2019-05-17T03:55:23.218Z,79.97
2019-05-17T03:57:52.999Z,80.17
2019-05-17T04:00:22.962Z,79.56
2019-05-17T04:02:48.588Z,80.02
2019-05-17T04:05:15.856Z,80.26
2019-05-17T04:07:43.887Z,78.46
2019-05-17T04:10:15.187Z,78.75
2019-05-17T04:12:44.051Z,80.84
2019-05-17T04:15:14.605Z,81.71
2019-05-17T04:17:44.064Z,80.52
2019-05-17T04:20:13.537Z,80.51
2019-05-17T04:22:44.369Z,80.14
2019-05-17T04:25:13.461Z,79.67
2019-05-17T04:27:43.646Z,79.06
2019-05-17T04:30:12.547Z,78.87
2019-05-17T04:32:39.925Z,79.52
2019-05-17T04:35:08.592Z,80.44
2019-05-17T04:37:38.396Z,79.14
2019-05-17T04:40:05.321Z,80.12
2019-05-17T04:42:33.201Z,80.05
2019-05-17T04:45:03.754Z,81.24
2019-05-17T04:47:32.947Z,80.63
2019-05-17T04:49:59.002Z,79.23
2019-05-17T04:52:26.172Z,79.90
2019-05-17T04:54:53.968Z,80.43
2019-05-17T04:57:23.141Z,81.08
2019-05-17T04:59:52.377Z,80.08
2019-05-17T05:02:19.707Z,81.03
2019-05-17T05:04:46.983Z,81.31
2019-05-17T05:07:14.341Z,80.43
2019-05-17T05:09:42.931Z,78.07
2019-05-17T05:12:12.532Z,80.23
2019-05-17T05:14:39.707Z,78.25
2019-05-17T05:17:06.863Z,78.67
2019-05-17T05:19:34.136Z,80.70
2019-05-17T05:22:04.570Z,80.49
2019-05-17T05:24:31.531Z,79.43
2019-05-17T05:26:58.802Z,78.64
2019-05-17T05:29:26.085Z,78.87
2019-05-17T05:31:53.230Z,79.93
2019-05-17T05:34:21.604Z,79.27
2019-05-17T05:36:48.973Z,78.58
2019-05-17T05:39:16.235Z,79.54
2019-05-17T05:41:43.415Z,79.16
2019-05-17T05:44:12.232Z,78.95
2019-05-17T05:46:42.246Z,79.98
2019-05-17T05:49:09.424Z,79.90
2019-05-17T05:51:36.682Z,80.02
2019-05-17T05:54:04.260Z,79.79
2019-05-17T05:56:32.605Z,78.55
2019-05-17T05:59:02.703Z,78.85
2019-05-17T06:01:29.656Z,77.09
2019-05-17T06:03:56.849Z,77.39
2019-05-17T06:06:24.217Z,78.44
2019-05-17T06:08:52.113Z,77.71
2019-05-17T06:11:21.542Z,79.63
2019-05-17T06:13:49.150Z,77.35
2019-05-17T06:16:16.514Z,77.68
2019-05-17T06:18:43.870Z,79.40
2019-05-17T06:21:12.210Z,78.69
2019-05-17T06:23:42.226Z,79.12
2019-05-17T06:26:08.942Z,78.58
2019-05-17T06:28:36.108Z,78.29
2019-05-17T06:31:03.344Z,76.65
2019-05-17T06:33:34.606Z,76.98
2019-05-17T06:36:02.682Z,78.31
2019-05-17T06:38:29.609Z,77.98
2019-05-17T06:40:56.964Z,78.77
2019-05-17T06:43:24.392Z,79.38
2019-05-17T06:45:52.260Z,79.25
2019-05-17T06:48:22.313Z,78.43
2019-05-17T06:50:48.886Z,77.63
2019-05-17T06:53:16.062Z,78.46
2019-05-17T06:55:44.489Z,77.43
2019-05-17T06:58:12.188Z,77.64
2019-05-17T07:00:40.434Z,77.17
2019-05-17T07:03:09.541Z,79.18
2019-05-17T07:05:40.354Z,79.44
2019-05-17T07:08:10.730Z,79.12
2019-05-17T07:10:39.639Z,79.41
2019-05-17T07:13:06.657Z,78.10
2019-05-17T07:15:43.653Z,79.00
2019-05-17T07:18:03.361Z,77.86
2019-05-17T07:20:30.852Z,76.61
2019-05-17T07:23:00.363Z,78.20
2019-05-17T07:25:27.503Z,78.53
2019-05-17T07:27:54.783Z,78.13
2019-05-17T07:30:22.757Z,78.14
2019-05-17T07:32:50.119Z,79.07
2019-05-17T07:35:19.596Z,79.15
2019-05-17T07:37:46.837Z,78.33
2019-05-17T07:40:14.481Z,78.49
2019-05-17T07:42:41.650Z,77.93
2019-05-17T07:45:10.308Z,76.92
2019-05-17T07:47:40.403Z,78.28
2019-05-17T07:52:30.521Z,78.03
2019-05-17T07:55:02.383Z,76.26
2019-05-17T07:57:27.029Z,77.07
2019-05-17T07:59:54.182Z,77.35
2019-05-17T08:02:21.448Z,77.39
2019-05-17T08:04:50.130Z,76.66
2019-05-17T08:07:19.676Z,76.32
2019-05-17T08:09:47.052Z,75.94
2019-05-17T08:12:14.314Z,76.00
2019-05-17T08:14:41.575Z,75.86
2019-05-17T08:17:10.211Z,75.77
2019-05-17T08:19:40.131Z,76.12
2019-05-17T08:22:09.639Z,73.96
2019-05-17T08:24:36.408Z,75.15
2019-05-17T08:27:03.880Z,74.90
2019-05-17T08:29:31.271Z,74.25
2019-05-17T08:32:01.769Z,74.95
2019-05-17T08:34:29.343Z,75.10
2019-05-17T08:36:56.638Z,74.19
2019-05-17T08:39:23.799Z,73.45
2019-05-17T08:41:50.950Z,73.32
2019-05-17T08:44:19.270Z,71.40
2019-05-17T08:46:46.819Z,71.02
2019-05-17T08:49:14.174Z,69.35
2019-05-17T08:51:41.691Z,69.25
2019-05-17T08:54:10.379Z,68.38
2019-05-17T08:56:40.194Z,69.65
2019-05-17T08:59:09.588Z,68.40
2019-05-17T09:01:40.983Z,67.57
2019-05-17T09:04:05.976Z,68.12
2019-05-17T09:06:33.250Z,69.28
2019-05-17T09:09:00.909Z,63.26
2019-05-17T09:11:30.290Z,65.13
2019-05-17T09:14:01.673Z,65.53
2019-05-17T09:16:27.014Z,66.47
2019-05-17T09:18:54.160Z,66.28
2019-05-17T09:21:21.964Z,65.38
2019-05-17T09:23:50.348Z,66.38
2019-05-17T09:26:19.861Z,64.11
2019-05-17T09:28:46.927Z,63.67
2019-05-17T09:31:14.192Z,65.00
2019-05-17T09:33:41.708Z,62.14
2019-05-17T09:36:10.146Z,61.97
2019-05-17T09:38:40.184Z,63.17
2019-05-17T09:41:09.210Z,60.73
2019-05-17T09:43:36.548Z,59.40
2019-05-17T09:46:03.978Z,57.96
2019-05-17T09:48:31.390Z,58.16
2019-05-17T09:50:59.966Z,59.21
2019-05-17T09:53:27.439Z,59.71
2019-05-17T09:55:54.807Z,58.77
2019-05-17T09:58:22.116Z,56.18
2019-05-17T10:00:49.628Z,58.08
2019-05-17T10:03:17.066Z,55.67
2019-05-17T10:05:44.608Z,54.89
2019-05-17T10:08:12.118Z,54.65
2019-05-17T10:10:40.208Z,56.17
2019-05-17T10:13:09.765Z,54.52
2019-05-17T10:15:37.087Z,55.84
2019-05-17T10:18:04.248Z,53.19
2019-05-17T10:20:31.498Z,51.80
2019-05-17T10:22:59.579Z,48.56
2019-05-17T10:25:29.357Z,45.43
2019-05-17T10:27:56.478Z,49.39
2019-05-17T10:30:24.068Z,51.56
2019-05-17T10:32:51.378Z,47.95
2019-05-17T10:35:19.945Z,48.29
2019-05-17T10:37:50.350Z,46.58
2019-05-17T10:40:20.792Z,48.60
2019-05-17T10:42:50.001Z,45.08
2019-05-17T10:45:19.837Z,46.63
2019-05-17T10:47:47.308Z,45.38
2019-05-17T10:50:14.950Z,39.73
2019-05-17T10:52:42.468Z,39.45
2019-05-17T10:55:10.603Z,37.65
2019-05-17T10:57:38.099Z,38.67
2019-05-17T11:00:06.837Z,37.79
2019-05-17T11:02:34.214Z,36.88
2019-05-17T11:05:04.590Z,37.69
2019-05-17T11:07:31.878Z,38.65
2019-05-17T11:10:00.304Z,35.95
2019-05-17T11:12:28.167Z,38.02
2019-05-17T11:15:09.829Z,34.53
2019-05-17T11:17:25.189Z,36.33
2019-05-17T11:19:52.569Z,37.02
2019-05-17T11:22:20.147Z,34.52
2019-05-17T11:24:47.470Z,34.50
2019-05-17T11:27:15.107Z,32.96
2019-05-17T11:29:42.493Z,35.25
2019-05-17T11:32:10.067Z,31.62
2019-05-17T11:34:37.542Z,32.62
2019-05-17T11:37:05.002Z,32.54
2019-05-17T11:39:32.532Z,31.75
2019-05-17T11:41:59.888Z,28.66
2019-05-17T11:44:27.226Z,31.78
2019-05-17T11:46:54.712Z,31.76
2019-05-17T11:49:22.154Z,28.60
2019-05-17T11:52:03.233Z,30.97
2019-05-17T11:54:30.840Z,31.12
2019-05-17T11:56:58.199Z,29.17
2019-05-17T11:59:25.601Z,28.79
2019-05-17T12:02:02.586Z,30.79
2019-05-17T12:04:36.326Z,33.12
2019-05-17T12:07:04.101Z,34.41
2019-05-17T12:09:37.416Z,32.26
2019-05-17T12:12:00.319Z,31.37
2019-05-17T12:14:27.647Z,33.18
2019-05-17T12:16:54.785Z,30.27
2019-05-17T12:19:22.395Z,31.84
2019-05-17T12:21:49.540Z,30.69
2019-05-17T12:24:16.918Z,29.77
2019-05-17T12:26:47.368Z,30.31
2019-05-17T12:29:13.809Z,28.84
2019-05-17T12:31:41.981Z,27.26
2019-05-17T12:34:09.362Z,30.41
2019-05-17T12:36:36.609Z,30.46
2019-05-17T12:39:05.929Z,25.75
2019-05-17T12:41:33.263Z,26.27
2019-05-17T12:44:00.821Z,27.62
2019-05-17T12:46:28.289Z,29.10
2019-05-17T12:48:55.450Z,28.21
2019-05-17T12:51:22.704Z,27.61
2019-05-17T12:53:49.962Z,26.32
2019-05-17T12:56:17.237Z,28.96
2019-05-17T12:58:44.517Z,29.25
2019-05-17T13:01:11.689Z,28.47
2019-05-17T13:03:38.920Z,28.71
2019-05-17T13:06:06.182Z,29.55
2019-05-17T13:08:33.332Z,31.77
2019-05-17T13:11:00.581Z,33.19
2019-05-17T13:13:27.850Z,33.11
2019-05-17T13:15:55.109Z,31.15
2019-05-17T13:18:22.413Z,33.48
2019-05-17T13:20:49.596Z,32.89
2019-05-17T13:23:16.824Z,31.43
2019-05-17T13:25:44.274Z,31.91
2019-05-17T13:28:11.434Z,34.77
2019-05-17T13:30:38.677Z,34.70
2019-05-17T13:33:06.014Z,34.13
2019-05-17T13:35:33.199Z,33.79
2019-05-17T13:38:00.477Z,34.76
2019-05-17T13:40:27.818Z,34.34
2019-05-17T13:42:55.244Z,35.10
2019-05-17T13:45:22.522Z,33.10
2019-05-17T13:47:49.697Z,33.15
2019-05-17T13:50:17.349Z,33.54
2019-05-17T13:52:44.761Z,31.22
2019-05-17T13:55:12.498Z,33.69
2019-05-17T13:57:39.760Z,34.21
2019-05-17T14:00:07.832Z,34.59
2019-05-17T14:02:35.245Z,35.30
2019-05-17T14:05:03.201Z,34.28
2019-05-17T14:07:30.712Z,35.59
2019-05-17T14:09:58.119Z,33.48
2019-05-17T14:14:52.527Z,33.59
2019-05-17T14:17:19.673Z,33.88
2019-05-17T14:19:46.927Z,34.31
2019-05-17T14:22:14.331Z,35.61
2019-05-17T14:24:41.696Z,32.59
2019-05-17T14:27:08.847Z,34.44
2019-05-17T14:29:36.047Z,35.78
2019-05-17T14:32:03.686Z,32.93
2019-05-17T14:34:32.188Z,34.56
2019-05-17T14:36:59.494Z,33.01
2019-05-17T14:39:27.131Z,34.06
2019-05-17T14:41:54.408Z,35.40
2019-05-17T14:44:21.546Z,34.99
2019-05-17T14:46:48.795Z,35.41
2019-05-17T14:49:15.953Z,34.95
2019-05-17T14:51:43.373Z,35.03
2019-05-17T14:54:10.542Z,34.86
2019-05-17T14:56:38.286Z,35.50
2019-05-17T14:59:05.564Z,35.76
2019-05-17T15:01:33.126Z,36.21
2019-05-17T15:04:00.421Z,37.45
2019-05-17T15:06:27.741Z,37.24
2019-05-17T15:08:55.018Z,36.57
2019-05-17T15:11:22.278Z,37.66
2019-05-17T15:13:49.928Z,38.15
2019-05-17T15:16:17.276Z,37.08
2019-05-17T15:18:44.563Z,37.40
2019-05-17T15:21:11.965Z,37.63
2019-05-17T15:23:39.225Z,37.80
2019-05-17T15:26:06.675Z,37.22
2019-05-17T15:28:33.978Z,38.38
2019-05-17T15:31:01.349Z,37.75
2019-05-17T15:33:28.599Z,38.42
2019-05-17T15:35:55.913Z,38.27
2019-05-17T15:38:23.173Z,39.32
2019-05-17T15:40:50.528Z,39.33
2019-05-17T15:43:17.869Z,39.34
2019-05-17T15:45:45.039Z,39.41
2019-05-17T15:48:12.335Z,38.74
2019-05-17T15:50:39.806Z,38.18
2019-05-17T15:53:07.178Z,38.06
2019-05-17T15:55:34.339Z,38.58
2019-05-17T15:58:01.586Z,39.01
2019-05-17T16:00:28.957Z,38.48
2019-05-17T16:02:56.141Z,37.99
2019-05-17T16:05:23.610Z,38.30
2019-05-17T16:07:50.932Z,38.71
2019-05-17T16:10:18.703Z,39.28
2019-05-17T16:13:01.005Z,39.72
2019-05-17T16:15:15.483Z,40.27
2019-05-17T16:17:42.786Z,40.45
2019-05-17T16:20:16.516Z,40.31
2019-05-17T16:22:42.946Z,40.70
2019-05-17T16:25:10.522Z,41.19
2019-05-17T16:27:38.240Z,41.18
2019-05-17T16:30:07.443Z,41.05
2019-05-17T16:32:36.425Z,41.37
2019-05-17T16:35:04.642Z,41.16
2019-05-17T16:37:31.846Z,41.18
2019-05-17T16:39:59.233Z,41.20
2019-05-17T16:42:26.616Z,41.49
2019-05-17T16:44:57.123Z,41.49
2019-05-17T16:47:24.475Z,41.42
2019-05-17T16:49:51.972Z,41.41
2019-05-17T16:52:24.036Z,41.56
2019-05-17T16:54:51.631Z,40.82
2019-05-17T16:57:19.215Z,41.69
2019-05-17T16:59:46.614Z,41.08
2019-05-17T17:02:14.066Z,41.68
2019-05-17T17:04:43.788Z,41.64
2019-05-17T17:07:11.322Z,41.67
2019-05-17T17:09:38.819Z,41.89
2019-05-17T17:12:06.120Z,41.62
2019-05-17T17:14:33.486Z,41.88
2019-05-17T17:17:00.858Z,41.65
2019-05-17T17:19:28.938Z,42.02
2019-05-17T17:21:56.332Z,42.17
2019-05-17T17:24:23.892Z,42.45
2019-05-17T17:26:52.378Z,42.15
2019-05-17T17:29:19.743Z,42.31
2019-05-17T17:31:46.909Z,42.33
2019-05-17T17:34:14.259Z,42.98
2019-05-17T17:36:41.708Z,43.19
2019-05-17T17:39:09.157Z,43.17
2019-05-17T17:41:36.519Z,43.35
2019-05-17T17:44:04.189Z,43.46
2019-05-17T17:46:31.482Z,44.06
2019-05-17T17:48:58.782Z,43.66
2019-05-17T17:51:26.239Z,43.68
2019-05-17T17:53:53.877Z,43.37
2019-05-17T17:56:21.198Z,43.10
2019-05-17T17:58:48.688Z,43.57
2019-05-17T18:01:16.037Z,43.63
2019-05-17T18:03:43.351Z,43.95
2019-05-17T18:06:10.602Z,44.18
2019-05-17T18:08:37.971Z,44.79
2019-05-17T18:11:05.478Z,44.67
2019-05-17T18:13:32.832Z,44.93
2019-05-17T18:16:00.309Z,45.31
2019-05-17T18:18:27.745Z,44.91
2019-05-17T18:20:55.132Z,45.30
2019-05-17T18:23:23.469Z,44.94
2019-05-17T18:25:51.330Z,45.22
2019-05-17T18:28:18.761Z,45.58
2019-05-17T18:30:46.120Z,45.98
2019-05-17T18:33:13.586Z,46.05
2019-05-17T18:35:41.273Z,46.96
2019-05-17T18:38:08.738Z,46.97
2019-05-17T18:40:36.247Z,47.72
2019-05-17T18:43:04.012Z,46.94
2019-05-17T18:45:31.480Z,48.18
2019-05-17T18:47:59.132Z,47.61
2019-05-17T18:50:27.389Z,47.52
2019-05-17T18:52:55.130Z,47.60
2019-05-17T18:55:22.785Z,47.51
2019-05-17T18:57:50.516Z,48.27
2019-05-17T19:00:18.439Z,48.36
2019-05-17T19:02:45.954Z,49.16
2019-05-17T19:05:13.824Z,48.78
2019-05-17T19:07:41.081Z,49.19
2019-05-17T19:10:08.966Z,50.92
2019-05-17T19:12:36.358Z,50.94
2019-05-17T19:15:04.948Z,51.35
2019-05-17T19:17:32.188Z,50.53
2019-05-17T19:19:59.442Z,50.68
2019-05-17T19:22:26.692Z,51.51
2019-05-17T19:24:54.168Z,53.65
2019-05-17T19:27:21.514Z,53.42
2019-05-17T19:29:48.894Z,52.36
2019-05-17T19:32:16.271Z,53.30
2019-05-17T19:34:43.519Z,53.71
2019-05-17T19:37:10.792Z,53.74
2019-05-17T19:39:38.067Z,55.53
2019-05-17T19:42:05.539Z,54.17
2019-05-17T19:44:32.728Z,55.86
2019-05-17T19:47:00.218Z,55.61
2019-05-17T19:49:27.429Z,54.88
2019-05-17T19:51:54.833Z,56.40
2019-05-17T19:54:22.134Z,56.20
2019-05-17T19:56:49.536Z,55.24
2019-05-17T19:59:16.709Z,56.85
2019-05-17T20:01:43.913Z,56.81
2019-05-17T20:04:11.203Z,55.40
2019-05-17T20:06:38.553Z,56.43
2019-05-17T20:09:06.384Z,55.15
2019-05-17T20:11:34.767Z,56.04
2019-05-17T20:14:02.388Z,57.82
2019-05-17T20:16:29.807Z,55.71
2019-05-17T20:18:57.155Z,55.73
2019-05-17T20:21:24.427Z,55.20
2019-05-17T20:23:51.813Z,54.26
2019-05-17T20:26:19.289Z,55.40
2019-05-17T20:28:46.457Z,54.06
2019-05-17T20:31:13.925Z,56.14
2019-05-17T20:33:41.080Z,55.06
2019-05-17T20:36:08.343Z,57.25
2019-05-17T20:38:35.478Z,56.40
2019-05-17T20:41:02.945Z,59.25
2019-05-17T20:43:30.311Z,58.66
2019-05-17T20:45:57.944Z,59.80
2019-05-17T20:48:26.035Z,60.31
2019-05-17T20:50:53.409Z,60.32
2019-05-17T20:53:20.769Z,61.67
2019-05-17T20:55:48.153Z,62.06
2019-05-17T20:58:15.564Z,62.60
2019-05-17T21:00:43.146Z,59.12
2019-05-17T21:03:13.756Z,60.60
2019-05-17T21:05:39.463Z,59.84
2019-05-17T21:08:07.001Z,61.30
2019-05-17T21:10:34.268Z,63.10
2019-05-17T21:13:01.640Z,58.68
2019-05-17T21:15:28.798Z,61.34
2019-05-17T21:17:56.011Z,65.73
2019-05-17T21:20:23.301Z,63.91
2019-05-17T21:22:50.688Z,65.94
2019-05-17T21:25:18.035Z,64.14
2019-05-17T21:27:45.711Z,65.58
2019-05-17T21:30:13.919Z,64.56
2019-05-17T21:32:41.181Z,64.96
2019-05-17T21:35:08.652Z,64.57
2019-05-17T21:37:36.021Z,62.19
2019-05-17T21:40:04.870Z,64.07
2019-05-17T21:42:32.142Z,63.93
2019-05-17T21:44:59.425Z,62.95
2019-05-17T21:47:26.591Z,65.24
2019-05-17T21:49:53.833Z,63.99
2019-05-17T21:52:21.193Z,63.23
2019-05-17T21:54:48.391Z,65.87
2019-05-17T21:57:15.579Z,63.36
2019-05-17T21:59:42.771Z,63.68
2019-05-17T22:02:10.244Z,63.90
2019-05-17T22:04:37.615Z,63.85
2019-05-17T22:07:05.578Z,64.21
2019-05-17T22:09:32.958Z,67.40
2019-05-17T22:12:03.924Z,67.88
2019-05-17T22:14:31.049Z,66.96
2019-05-17T22:16:58.423Z,68.10
2019-05-17T22:19:25.799Z,67.77
2019-05-17T22:21:53.270Z,66.75
2019-05-17T22:24:20.456Z,69.98
2019-05-17T22:26:47.848Z,68.27
2019-05-17T22:29:15.239Z,66.61
2019-05-17T22:31:42.735Z,67.91
2019-05-17T22:34:10.026Z,68.79
2019-05-17T22:36:37.485Z,70.37
2019-05-17T22:39:06.019Z,70.31
2019-05-17T22:41:33.380Z,71.67
2019-05-17T22:44:00.657Z,71.14
2019-05-17T22:46:36.165Z,71.78
2019-05-17T22:48:57.040Z,70.02
2019-05-17T22:51:24.400Z,70.06
2019-05-17T22:53:51.888Z,71.91
2019-05-17T22:56:19.166Z,69.86
2019-05-17T22:58:46.621Z,71.21
2019-05-17T23:01:13.890Z,73.33
2019-05-17T23:03:41.083Z,73.44
2019-05-17T23:06:08.658Z,72.29
2019-05-17T23:08:36.200Z,74.95
2019-05-17T23:11:03.706Z,75.51
2019-05-17T23:13:30.961Z,73.92
2019-05-17T23:16:06.965Z,73.67
2019-05-17T23:18:35.056Z,74.08
2019-05-17T23:21:03.445Z,76.19
2019-05-17T23:23:30.785Z,74.90
2019-05-17T23:25:58.266Z,75.18
2019-05-17T23:28:25.789Z,73.64
2019-05-17T23:30:53.360Z,76.98
2019-05-17T23:33:20.766Z,75.40
2019-05-17T23:35:48.149Z,74.76
2019-05-17T23:38:15.385Z,76.67
2019-05-17T23:40:42.580Z,75.29
2019-05-17T23:43:09.839Z,75.02
2019-05-17T23:45:37.000Z,75.76
2019-05-17T23:48:04.239Z,71.72
2019-05-17T23:50:31.607Z,73.77
2019-05-17T23:52:58.853Z,75.27
2019-05-17T23:55:26.224Z,77.07
2019-05-17T23:57:53.483Z,76.60
